createdAt,value
2022-10-18T00:00:38.667Z,24.72
2022-10-18T00:03:05.785Z,24.71
2022-10-18T00:05:32.942Z,24.71
2022-10-18T00:08:02.560Z,24.70
2022-10-18T00:10:29.696Z,24.69
2022-10-18T00:12:56.844Z,24.69
2022-10-18T00:15:23.888Z,24.68
2022-10-18T00:17:51.150Z,24.68
2022-10-18T00:20:18.604Z,24.67
2022-10-18T00:22:47.181Z,24.67
2022-10-18T00:25:16.169Z,24.66
2022-10-18T00:27:43.221Z,24.67
2022-10-18T00:30:10.785Z,24.66
2022-10-18T00:32:39.607Z,24.66
2022-10-18T00:35:08.372Z,24.65
2022-10-18T00:37:38.795Z,24.65
2022-10-18T00:40:06.667Z,24.65
2022-10-18T00:42:36.771Z,24.64
2022-10-18T00:45:18.569Z,24.65
2022-10-18T00:47:50.740Z,24.64
2022-10-18T00:50:20.445Z,24.64
2022-10-18T00:52:53.533Z,24.64
2022-10-18T00:55:21.228Z,24.65
2022-10-18T00:57:49.844Z,24.67
2022-10-18T01:00:20.211Z,24.73
2022-10-18T01:02:48.075Z,24.75
2022-10-18T01:05:17.988Z,24.76
2022-10-18T01:08:16.375Z,24.78
2022-10-18T01:11:00.626Z,24.79
2022-10-18T01:13:46.725Z,24.81
2022-10-18T01:16:29.540Z,24.81
2022-10-18T01:19:15.115Z,24.81
2022-10-18T01:22:09.506Z,24.80
2022-10-18T01:25:04.125Z,24.79
2022-10-18T01:27:41.385Z,24.79
2022-10-18T01:30:20.548Z,24.77
2022-10-18T01:32:52.375Z,24.77
2022-10-18T01:35:24.461Z,24.76
2022-10-18T01:37:59.613Z,24.76
2022-10-18T01:40:27.551Z,24.74
2022-10-18T01:42:55.458Z,24.73
2022-10-18T01:45:24.515Z,24.72
2022-10-18T01:47:54.773Z,24.72
2022-10-18T01:50:33.741Z,24.71
2022-10-18T01:53:02.578Z,24.70
2022-10-18T01:55:43.860Z,24.69
2022-10-18T01:58:46.013Z,24.69
2022-10-18T02:01:45.115Z,24.69
2022-10-18T02:04:34.585Z,24.68
2022-10-18T02:07:13.629Z,24.68
2022-10-18T02:09:50.900Z,24.68
2022-10-18T02:12:20.746Z,24.68
2022-10-18T02:14:49.835Z,24.68
2022-10-18T02:17:20.359Z,24.67
2022-10-18T02:19:54.493Z,24.66
2022-10-18T02:22:27.138Z,24.66
2022-10-18T02:24:59.206Z,24.66
2022-10-18T02:27:26.238Z,24.66
2022-10-18T02:29:53.900Z,24.66
2022-10-18T02:32:34.069Z,24.65
2022-10-18T02:35:27.521Z,24.65
2022-10-18T02:37:55.906Z,24.65
2022-10-18T02:40:24.589Z,24.65
2022-10-18T02:42:55.732Z,24.64
2022-10-18T02:45:23.599Z,24.64
2022-10-18T02:47:51.162Z,24.64
2022-10-18T02:50:19.229Z,24.63
2022-10-18T02:52:46.235Z,24.62
2022-10-18T02:55:13.629Z,24.62
2022-10-18T02:57:40.787Z,24.61
2022-10-18T03:00:08.964Z,24.61
2022-10-18T03:02:36.106Z,24.61
2022-10-18T03:05:03.565Z,24.61
2022-10-18T03:07:31.372Z,24.60
2022-10-18T03:09:58.887Z,24.60
2022-10-18T03:12:25.941Z,24.60
2022-10-18T03:14:52.985Z,24.60
2022-10-18T03:17:21.461Z,24.60
2022-10-18T03:19:48.515Z,24.61
2022-10-18T03:22:15.749Z,24.67
2022-10-18T03:24:43.518Z,24.68
2022-10-18T03:27:10.574Z,24.70
2022-10-18T03:29:39.091Z,24.71
2022-10-18T03:32:07.549Z,24.71
2022-10-18T03:34:34.792Z,24.73
2022-10-18T03:37:04.771Z,24.73
2022-10-18T03:39:32.586Z,24.73
2022-10-18T03:41:59.941Z,24.73
2022-10-18T03:44:27.029Z,24.73
2022-10-18T03:46:54.282Z,24.73
2022-10-18T03:49:21.962Z,24.72
2022-10-18T03:51:54.488Z,24.71
2022-10-18T03:54:22.038Z,24.70
2022-10-18T03:56:52.147Z,24.70
2022-10-18T03:59:19.198Z,24.69
2022-10-18T04:01:46.373Z,24.69
2022-10-18T04:04:13.390Z,24.68
2022-10-18T04:06:41.701Z,24.67
2022-10-18T04:09:10.241Z,24.67
2022-10-18T04:11:37.709Z,24.66
2022-10-18T04:14:04.966Z,24.66
2022-10-18T04:16:34.163Z,24.65
2022-10-18T04:19:01.209Z,24.64
2022-10-18T04:21:28.361Z,24.64
2022-10-18T04:23:55.411Z,24.63
2022-10-18T04:26:23.170Z,24.63
2022-10-18T04:28:53.658Z,24.63
2022-10-18T04:31:20.856Z,24.62
2022-10-18T04:33:47.898Z,24.62
2022-10-18T04:36:15.156Z,24.61
2022-10-18T04:38:42.306Z,24.61
2022-10-18T04:41:10.224Z,24.61
2022-10-18T04:43:37.689Z,24.60
2022-10-18T04:46:05.284Z,24.60
2022-10-18T04:48:33.563Z,24.59
2022-10-18T04:51:00.716Z,24.59
2022-10-18T04:53:28.497Z,24.58
2022-10-18T04:55:56.040Z,24.59
2022-10-18T04:58:23.083Z,24.59
2022-10-18T05:00:53.883Z,24.59
2022-10-18T05:03:22.727Z,24.60
2022-10-18T05:06:01.219Z,24.60
2022-10-18T05:08:32.372Z,24.60
2022-10-18T05:11:01.133Z,24.60
2022-10-18T05:13:31.876Z,24.61
2022-10-18T05:16:00.480Z,24.61
2022-10-18T05:18:27.732Z,24.61
2022-10-18T05:20:54.784Z,24.61
2022-10-18T05:23:22.466Z,24.61
2022-10-18T05:25:50.009Z,24.61
2022-10-18T05:31:06.418Z,24.61
2022-10-18T05:33:34.208Z,24.62
2022-10-18T05:36:01.242Z,24.62
2022-10-18T05:38:31.418Z,24.63
2022-10-18T05:41:00.142Z,24.62
2022-10-18T05:43:30.565Z,24.62
2022-10-18T05:45:57.717Z,24.63
2022-10-18T05:48:26.403Z,24.64
2022-10-18T05:50:53.758Z,24.63
2022-10-18T05:53:37.837Z,24.63
2022-10-18T05:56:08.301Z,24.64
2022-10-18T05:58:36.923Z,24.64
2022-10-18T06:01:06.722Z,24.64
2022-10-18T06:03:34.706Z,24.65
2022-10-18T06:06:09.051Z,24.64
2022-10-18T06:08:38.669Z,24.64
2022-10-18T06:11:18.785Z,24.64
2022-10-18T06:13:48.189Z,24.64
2022-10-18T06:16:17.474Z,24.64
2022-10-18T06:18:51.088Z,24.64
2022-10-18T06:21:19.070Z,24.64
2022-10-18T06:23:55.216Z,24.64
2022-10-18T06:26:28.020Z,24.64
2022-10-18T06:28:58.929Z,24.64
2022-10-18T06:31:29.263Z,24.65
2022-10-18T06:33:58.606Z,24.64
2022-10-18T06:36:26.142Z,24.65
2022-10-18T06:38:54.203Z,24.64
2022-10-18T06:41:25.131Z,24.65
2022-10-18T06:43:56.990Z,24.64
2022-10-18T06:46:25.690Z,24.64
2022-10-18T06:48:54.257Z,24.65
2022-10-18T06:51:22.949Z,24.65
2022-10-18T06:53:59.673Z,24.65
2022-10-18T06:56:39.063Z,24.65
2022-10-18T06:59:06.528Z,24.65
2022-10-18T07:01:33.800Z,24.65
2022-10-18T07:04:00.919Z,24.65
2022-10-18T07:06:29.248Z,24.66
2022-10-18T07:09:00.770Z,24.66
2022-10-18T07:11:27.898Z,24.66
2022-10-18T07:14:05.658Z,24.67
2022-10-18T07:16:35.638Z,24.67
2022-10-18T07:19:03.246Z,24.67
2022-10-18T07:21:30.529Z,24.66
2022-10-18T07:23:59.632Z,24.66
2022-10-18T07:26:31.893Z,24.65
2022-10-18T07:29:07.945Z,24.67
2022-10-18T07:31:35.722Z,24.66
2022-10-18T07:34:07.810Z,24.67
2022-10-18T07:36:37.290Z,24.67
2022-10-18T07:39:05.165Z,24.67
2022-10-18T07:41:34.986Z,24.68
2022-10-18T07:44:06.290Z,24.68
2022-10-18T07:46:33.361Z,24.69
2022-10-18T07:49:00.518Z,24.68
2022-10-18T07:51:34.163Z,24.69
2022-10-18T07:54:01.370Z,24.68
2022-10-18T07:56:28.623Z,24.68
2022-10-18T07:58:57.108Z,24.68
2022-10-18T08:01:28.793Z,24.69
2022-10-18T08:03:56.330Z,24.69
2022-10-18T08:06:27.172Z,24.69
2022-10-18T08:08:56.261Z,24.69
2022-10-18T08:11:28.941Z,24.68
2022-10-18T08:13:56.083Z,24.69
2022-10-18T08:16:29.141Z,24.68
2022-10-18T08:18:58.954Z,24.68
2022-10-18T08:21:27.905Z,24.69
2022-10-18T08:23:56.674Z,24.69
2022-10-18T08:26:26.990Z,24.69
2022-10-18T08:29:09.863Z,24.69
2022-10-18T08:31:43.200Z,24.70
2022-10-18T08:34:10.347Z,24.69
2022-10-18T08:36:42.553Z,24.70
2022-10-18T08:39:10.490Z,24.70
2022-10-18T08:41:37.560Z,24.71
2022-10-18T08:44:22.378Z,24.72
2022-10-18T08:46:59.275Z,24.72
2022-10-18T08:49:32.681Z,24.72
2022-10-18T08:51:59.826Z,24.72
2022-10-18T08:54:42.493Z,24.72
2022-10-18T08:57:18.528Z,24.71
2022-10-18T08:59:45.541Z,24.72
2022-10-18T09:02:47.305Z,24.72
2022-10-18T09:05:54.635Z,24.71
2022-10-18T09:08:21.824Z,24.70
2022-10-18T09:11:07.401Z,24.70
2022-10-18T09:14:31.263Z,24.70
2022-10-18T09:17:16.029Z,24.69
2022-10-18T09:22:48.981Z,24.69
2022-10-18T09:25:44.810Z,24.69
2022-10-18T09:28:43.625Z,24.69
2022-10-18T09:31:33.889Z,24.69
2022-10-18T09:34:29.620Z,24.68
2022-10-18T09:36:59.290Z,24.68
2022-10-18T09:39:32.401Z,24.69
2022-10-18T09:42:18.527Z,24.68
2022-10-18T09:44:52.169Z,24.68
2022-10-18T09:47:23.404Z,24.69
2022-10-18T09:50:06.794Z,24.69
2022-10-18T09:52:45.377Z,24.69
2022-10-18T09:55:39.381Z,24.69
2022-10-18T09:58:11.451Z,24.69
2022-10-18T10:00:46.592Z,24.69
2022-10-18T10:03:15.198Z,24.70
2022-10-18T10:05:45.886Z,24.70
2022-10-18T10:08:13.457Z,24.70
2022-10-18T10:10:46.868Z,24.70
2022-10-18T10:13:23.296Z,24.70
2022-10-18T10:16:01.139Z,24.71
2022-10-18T10:18:37.109Z,24.71
2022-10-18T10:21:14.981Z,24.72
2022-10-18T10:23:51.771Z,24.73
2022-10-18T10:26:29.250Z,24.73
2022-10-18T10:28:57.108Z,24.75
2022-10-18T10:31:28.977Z,24.74
2022-10-18T10:34:03.744Z,24.74
2022-10-18T10:36:34.746Z,24.74
2022-10-18T10:39:19.041Z,24.74
2022-10-18T10:41:52.632Z,24.74
2022-10-18T10:44:26.339Z,24.73
2022-10-18T10:46:55.784Z,24.73
2022-10-18T10:49:41.602Z,24.73
2022-10-18T10:52:29.059Z,24.73
2022-10-18T10:55:11.285Z,24.73
2022-10-18T10:57:47.468Z,24.74
2022-10-18T11:00:42.029Z,24.74
2022-10-18T11:03:28.961Z,24.74
2022-10-18T11:05:59.040Z,24.74
2022-10-18T11:08:31.947Z,24.74
2022-10-18T11:11:09.497Z,24.75
2022-10-18T11:14:13.566Z,24.75
2022-10-18T11:17:13.227Z,24.75
2022-10-18T11:20:10.171Z,24.75
2022-10-18T11:22:52.271Z,24.75
2022-10-18T11:28:16.790Z,24.74
2022-10-18T11:30:59.103Z,24.73
2022-10-18T11:33:56.365Z,24.74
2022-10-18T11:39:36.338Z,24.73
2022-10-18T11:42:26.667Z,24.74
2022-10-18T11:45:08.912Z,24.74
2022-10-18T11:47:39.849Z,24.74
2022-10-18T11:50:45.351Z,24.75
2022-10-18T11:53:39.189Z,24.75
2022-10-18T11:56:15.345Z,24.76
2022-10-18T11:59:01.124Z,24.76
2022-10-18T12:02:01.455Z,24.76
2022-10-18T12:04:45.031Z,24.76
2022-10-18T12:07:28.947Z,24.77
2022-10-18T12:10:00.985Z,24.77
2022-10-18T12:12:34.020Z,24.77
2022-10-18T12:15:32.149Z,24.77
2022-10-18T12:18:08.830Z,24.78
2022-10-18T12:20:45.611Z,24.78
2022-10-18T12:23:12.657Z,24.78
2022-10-18T12:25:43.365Z,24.78
2022-10-18T12:28:29.644Z,24.78
2022-10-18T12:31:34.838Z,24.79
2022-10-18T12:34:10.502Z,24.79
2022-10-18T12:36:53.119Z,24.79
2022-10-18T12:39:43.835Z,24.78
2022-10-18T12:42:27.120Z,24.78
2022-10-18T12:45:36.876Z,24.78
2022-10-18T12:48:26.229Z,24.78
2022-10-18T12:51:13.994Z,24.78
2022-10-18T12:53:42.465Z,24.78
2022-10-18T12:56:27.950Z,24.78
2022-10-18T12:59:17.319Z,24.78
2022-10-18T13:01:53.689Z,24.77
2022-10-18T13:04:34.028Z,24.77
2022-10-18T13:07:03.230Z,24.77
2022-10-18T13:09:54.648Z,24.77
2022-10-18T13:12:22.007Z,24.76
2022-10-18T13:15:12.604Z,24.78
2022-10-18T13:18:26.548Z,24.78
2022-10-18T13:21:21.147Z,24.79
2022-10-18T13:24:18.335Z,24.79
2022-10-18T13:27:36.313Z,24.79
2022-10-18T13:30:32.576Z,24.79
2022-10-18T13:33:11.005Z,24.79
2022-10-18T13:36:00.885Z,24.78
2022-10-18T13:38:35.188Z,24.78
2022-10-18T13:41:07.960Z,24.78
2022-10-18T13:43:56.321Z,24.77
2022-10-18T13:46:39.856Z,24.77
2022-10-18T13:49:45.046Z,24.77
2022-10-18T13:52:46.456Z,24.77
2022-10-18T13:55:34.185Z,24.76
2022-10-18T13:58:10.648Z,24.76
2022-10-18T14:00:53.470Z,24.77
2022-10-18T14:03:57.520Z,24.77
2022-10-18T14:06:29.456Z,24.77
2022-10-18T14:09:26.268Z,24.78
2022-10-18T14:12:16.993Z,24.77
2022-10-18T14:14:52.820Z,24.76
2022-10-18T14:17:23.027Z,24.76
2022-10-18T14:19:57.643Z,24.76
2022-10-18T14:22:40.685Z,24.75
2022-10-18T14:25:30.907Z,24.74
2022-10-18T14:28:36.220Z,24.74
2022-10-18T14:31:15.798Z,24.73
2022-10-18T14:33:57.584Z,24.73
2022-10-18T14:36:28.847Z,24.72
2022-10-18T14:39:00.691Z,24.73
2022-10-18T14:41:33.484Z,24.72
2022-10-18T14:44:20.703Z,24.73
2022-10-18T14:47:20.819Z,24.73
2022-10-18T14:49:48.996Z,24.73
2022-10-18T14:52:25.353Z,24.74
2022-10-18T14:54:56.705Z,24.74
2022-10-18T14:57:36.580Z,24.74
2022-10-18T15:00:09.183Z,24.74
2022-10-18T15:02:39.050Z,24.74
2022-10-18T15:05:22.878Z,24.75
2022-10-18T15:07:52.850Z,24.74
2022-10-18T15:10:27.736Z,24.75
2022-10-18T15:13:17.300Z,24.74
2022-10-18T15:15:45.302Z,24.74
2022-10-18T15:18:27.135Z,24.74
2022-10-18T15:21:23.448Z,24.74
2022-10-18T15:23:54.695Z,24.73
2022-10-18T15:26:30.719Z,24.73
2022-10-18T15:29:02.863Z,24.73
2022-10-18T15:31:38.475Z,24.73
2022-10-18T15:34:19.211Z,24.72
2022-10-18T15:36:47.918Z,24.73
2022-10-18T15:39:34.545Z,24.72
2022-10-18T15:42:05.955Z,24.72
2022-10-18T15:44:36.364Z,24.72
2022-10-18T15:47:12.426Z,24.71
2022-10-18T15:49:47.670Z,24.71
2022-10-18T15:52:41.869Z,24.72
2022-10-18T15:55:30.919Z,24.72
2022-10-18T15:58:17.416Z,24.71
2022-10-18T16:00:46.322Z,24.71
2022-10-18T16:03:14.958Z,24.70
2022-10-18T16:06:04.393Z,24.70
2022-10-18T16:08:41.288Z,24.69
2022-10-18T16:11:15.359Z,24.69
2022-10-18T16:13:43.718Z,24.69
2022-10-18T16:16:28.463Z,24.69
2022-10-18T16:18:56.437Z,24.69
2022-10-18T16:21:28.688Z,24.68
2022-10-18T16:23:56.608Z,24.69
2022-10-18T16:26:24.783Z,24.74
2022-10-18T16:28:54.541Z,24.76
2022-10-18T16:31:25.868Z,24.78
2022-10-18T16:33:54.528Z,24.79
2022-10-18T16:36:31.884Z,24.80
2022-10-18T16:39:02.963Z,24.81
2022-10-18T16:41:30.107Z,24.82
2022-10-18T16:43:57.021Z,24.82
2022-10-18T16:46:28.734Z,24.83
2022-10-18T16:49:01.197Z,24.82
2022-10-18T16:51:28.434Z,24.80
2022-10-18T16:53:55.482Z,24.80
2022-10-18T16:56:27.339Z,24.79
2022-10-18T16:58:55.733Z,24.78
2022-10-18T17:01:25.715Z,24.77
2022-10-18T17:03:53.775Z,24.76
2022-10-18T17:06:31.066Z,24.75
2022-10-18T17:08:58.971Z,24.74
2022-10-18T17:11:28.500Z,24.74
2022-10-18T17:13:58.609Z,24.73
2022-10-18T17:16:32.271Z,24.72
2022-10-18T17:19:03.694Z,24.70
2022-10-18T17:21:33.610Z,24.70
2022-10-18T17:24:06.219Z,24.70
2022-10-18T17:26:34.326Z,24.69
2022-10-18T17:29:05.359Z,24.68
2022-10-18T17:31:33.732Z,24.68
2022-10-18T17:34:06.162Z,24.66
2022-10-18T17:36:33.773Z,24.65
2022-10-18T17:39:02.660Z,24.65
2022-10-18T17:41:29.810Z,24.65
2022-10-18T17:43:56.859Z,24.64
2022-10-18T17:46:24.932Z,24.64
2022-10-18T17:48:57.399Z,24.64
2022-10-18T17:51:24.446Z,24.63
2022-10-18T17:53:51.500Z,24.63
2022-10-18T17:56:18.661Z,24.63
2022-10-18T17:58:47.234Z,24.62
2022-10-18T18:01:26.257Z,24.62
2022-10-18T18:04:01.599Z,24.63
2022-10-18T18:06:31.562Z,24.63
2022-10-18T18:09:00.611Z,24.62
2022-10-18T18:11:29.711Z,24.62
2022-10-18T18:13:57.472Z,24.62
2022-10-18T18:16:27.250Z,24.63
2022-10-18T18:18:56.789Z,24.62
2022-10-18T18:21:25.482Z,24.63
2022-10-18T18:23:56.429Z,24.62
2022-10-18T18:26:24.381Z,24.65
2022-10-18T18:28:51.542Z,24.71
2022-10-18T18:31:23.702Z,24.72
2022-10-18T18:33:55.552Z,24.74
2022-10-18T18:36:25.382Z,24.75
2022-10-18T18:38:56.897Z,24.76
2022-10-18T18:41:27.887Z,24.77
2022-10-18T18:44:04.272Z,24.77
2022-10-18T18:46:36.741Z,24.77
2022-10-18T18:49:04.899Z,24.76
2022-10-18T18:51:33.515Z,24.75
2022-10-18T18:54:01.037Z,24.75
2022-10-18T18:56:29.295Z,24.75
2022-10-18T18:58:58.788Z,24.74
2022-10-18T19:01:28.865Z,24.73
2022-10-18T19:03:57.366Z,24.72
2022-10-18T19:06:29.813Z,24.72
2022-10-18T19:09:02.516Z,24.71
2022-10-18T19:11:33.045Z,24.71
2022-10-18T19:14:02.625Z,24.70
2022-10-18T19:16:37.772Z,24.70
2022-10-18T19:19:06.326Z,24.69
2022-10-18T19:21:36.534Z,24.69
2022-10-18T19:24:05.349Z,24.69
2022-10-18T19:26:38.768Z,24.69
2022-10-18T19:32:02.810Z,24.68
2022-10-18T19:34:31.631Z,24.68
2022-10-18T19:36:59.632Z,24.68
2022-10-18T19:39:31.239Z,24.68
2022-10-18T19:42:03.709Z,24.69
2022-10-18T19:44:33.141Z,24.70
2022-10-18T19:47:01.198Z,24.71
2022-10-18T19:49:29.719Z,24.72
2022-10-18T19:51:57.346Z,24.74
2022-10-18T19:54:25.621Z,24.75
2022-10-18T19:56:53.178Z,24.75
2022-10-18T19:59:22.279Z,24.76
2022-10-18T20:01:49.879Z,24.78
2022-10-18T20:04:17.670Z,24.79
2022-10-18T20:06:44.905Z,24.79
2022-10-18T20:09:19.336Z,24.80
2022-10-18T20:11:48.354Z,24.80
2022-10-18T20:14:15.968Z,24.82
2022-10-18T20:16:43.213Z,24.82
2022-10-18T20:19:10.637Z,24.83
2022-10-18T20:21:40.875Z,24.83
2022-10-18T20:24:09.677Z,24.84
2022-10-18T20:26:39.863Z,24.83
2022-10-18T20:29:07.969Z,24.84
2022-10-18T20:31:38.651Z,24.84
2022-10-18T20:34:10.738Z,24.85
2022-10-18T20:36:38.716Z,24.85
2022-10-18T20:39:09.236Z,24.86
2022-10-18T20:41:41.458Z,24.86
2022-10-18T20:44:13.572Z,24.86
2022-10-18T20:46:41.752Z,24.86
2022-10-18T20:49:10.956Z,24.86
2022-10-18T20:51:37.983Z,24.86
2022-10-18T20:54:06.898Z,24.86
2022-10-18T20:56:36.686Z,24.86
2022-10-18T20:59:06.527Z,24.86
2022-10-18T21:01:35.053Z,24.86
2022-10-18T21:04:05.729Z,24.86
2022-10-18T21:06:40.451Z,24.86
2022-10-18T21:09:20.102Z,24.86
2022-10-18T21:11:49.827Z,24.86
2022-10-18T21:14:23.444Z,24.86
2022-10-18T21:16:52.594Z,24.86
2022-10-18T21:19:21.074Z,24.86
2022-10-18T21:21:50.711Z,24.86
2022-10-18T21:24:21.840Z,24.86
2022-10-18T21:26:49.285Z,24.86
2022-10-18T21:29:21.880Z,24.87
2022-10-18T21:31:49.534Z,24.86
2022-10-18T21:34:18.020Z,24.86
2022-10-18T21:36:51.411Z,24.86
2022-10-18T21:39:25.621Z,24.86
2022-10-18T21:41:56.124Z,24.86
2022-10-18T21:44:24.538Z,24.87
2022-10-18T21:46:51.786Z,24.86
2022-10-18T21:49:18.941Z,24.86
2022-10-18T21:51:46.190Z,24.86
2022-10-18T21:54:15.584Z,24.85
2022-10-18T21:56:51.757Z,24.86
2022-10-18T21:59:18.976Z,24.86
2022-10-18T22:01:46.575Z,24.86
2022-10-18T22:04:23.213Z,24.86
2022-10-18T22:06:52.171Z,24.86
2022-10-18T22:09:21.372Z,24.86
2022-10-18T22:11:54.199Z,24.86
2022-10-18T22:14:22.795Z,24.86
2022-10-18T22:16:51.032Z,24.86
2022-10-18T22:19:19.344Z,24.86
2022-10-18T22:21:46.594Z,24.85
2022-10-18T22:24:16.949Z,24.83
2022-10-18T22:26:45.611Z,24.83
2022-10-18T22:29:15.996Z,24.80
2022-10-18T22:31:49.688Z,24.79
2022-10-18T22:34:23.724Z,24.77
2022-10-18T22:36:52.093Z,24.75
2022-10-18T22:39:19.317Z,24.74
2022-10-18T22:41:47.046Z,24.72
2022-10-18T22:44:15.359Z,24.71
2022-10-18T22:46:42.995Z,24.70
2022-10-18T22:49:11.875Z,24.68
2022-10-18T22:51:42.015Z,24.67
2022-10-18T22:54:10.179Z,24.65
2022-10-18T22:56:37.313Z,24.64
2022-10-18T22:59:04.673Z,24.63
2022-10-18T23:01:31.723Z,24.62
2022-10-18T23:04:01.222Z,24.60
2022-10-18T23:06:32.087Z,24.59
2022-10-18T23:09:01.861Z,24.59
2022-10-18T23:11:29.746Z,24.58
2022-10-18T23:13:56.787Z,24.57
2022-10-18T23:16:24.765Z,24.56
2022-10-18T23:18:54.204Z,24.55
2022-10-18T23:21:24.487Z,24.54
2022-10-18T23:23:53.381Z,24.54
2022-10-18T23:26:23.083Z,24.54
2022-10-18T23:28:52.335Z,24.54
2022-10-18T23:31:25.713Z,24.54
2022-10-18T23:33:55.954Z,24.54
2022-10-18T23:36:23.973Z,24.53
2022-10-18T23:38:51.464Z,24.54
2022-10-18T23:41:18.817Z,24.54
2022-10-18T23:43:46.356Z,24.53
2022-10-18T23:46:15.335Z,24.53
2022-10-18T23:48:42.912Z,24.53
2022-10-18T23:51:10.766Z,24.52
2022-10-18T23:53:39.686Z,24.52
2022-10-18T23:56:09.758Z,24.52
2022-10-18T23:58:37.953Z,24.52
